sensor_id;sensor_type;location;lat;lon;timestamp;temperature;humidity
37002;DHT22;22913;51.910;8.374;2022-12-26T00:02:23;11.30;99.90
37002;DHT22;22913;51.910;8.374;2022-12-26T00:05:09;11.30;99.90
37002;DHT22;22913;51.910;8.374;2022-12-26T00:07:55;11.30;99.90
37002;DHT22;22913;51.910;8.374;2022-12-26T00:10:42;11.30;99.90
37002;DHT22;22913;51.910;8.374;2022-12-26T00:13:28;11.30;99.90
37002;DHT22;22913;51.910;8.374;2022-12-26T00:16:16;11.30;99.90
37002;DHT22;22913;51.910;8.374;2022-12-26T00:19:02;11.30;99.90
37002;DHT22;22913;51.910;8.374;2022-12-26T00:21:48;11.30;99.90
37002;DHT22;22913;51.910;8.374;2022-12-26T00:24:33;11.30;99.90
37002;DHT22;22913;51.910;8.374;2022-12-26T00:27:20;11.30;99.90
37002;DHT22;22913;51.910;8.374;2022-12-26T00:30:08;11.30;99.90
37002;DHT22;22913;51.910;8.374;2022-12-26T00:32:54;11.30;99.90
37002;DHT22;22913;51.910;8.374;2022-12-26T00:35:39;11.30;99.90
37002;DHT22;22913;51.910;8.374;2022-12-26T00:38:25;11.30;99.90
37002;DHT22;22913;51.910;8.374;2022-12-26T00:41:13;11.30;99.90
37002;DHT22;22913;51.910;8.374;2022-12-26T00:44:00;11.30;99.90
37002;DHT22;22913;51.910;8.374;2022-12-26T00:46:46;11.30;99.90
37002;DHT22;22913;51.910;8.374;2022-12-26T00:49:32;11.30;99.90
37002;DHT22;22913;51.910;8.374;2022-12-26T00:52:18;11.30;99.90
37002;DHT22;22913;51.910;8.374;2022-12-26T00:55:04;11.30;99.90
37002;DHT22;22913;51.910;8.374;2022-12-26T00:57:50;11.30;99.90
37002;DHT22;22913;51.910;8.374;2022-12-26T01:00:37;11.30;99.90
37002;DHT22;22913;51.910;8.374;2022-12-26T01:03:23;11.30;99.90
37002;DHT22;22913;51.910;8.374;2022-12-26T01:06:09;11.30;99.90
37002;DHT22;22913;51.910;8.374;2022-12-26T01:08:55;11.30;99.90
37002;DHT22;22913;51.910;8.374;2022-12-26T01:11:42;11.30;99.90
37002;DHT22;22913;51.910;8.374;2022-12-26T01:14:28;11.40;99.90
37002;DHT22;22913;51.910;8.374;2022-12-26T01:17:15;11.40;99.90
37002;DHT22;22913;51.910;8.374;2022-12-26T01:20:01;11.40;99.90
37002;DHT22;22913;51.910;8.374;2022-12-26T01:22:47;11.40;99.90
37002;DHT22;22913;51.910;8.374;2022-12-26T01:25:33;11.40;99.90
37002;DHT22;22913;51.910;8.374;2022-12-26T01:28:18;11.30;99.90
37002;DHT22;22913;51.910;8.374;2022-12-26T01:31:05;11.40;99.90
37002;DHT22;22913;51.910;8.374;2022-12-26T01:33:52;11.40;99.90
37002;DHT22;22913;51.910;8.374;2022-12-26T01:36:38;11.40;99.90
37002;DHT22;22913;51.910;8.374;2022-12-26T01:39:23;11.40;99.90
37002;DHT22;22913;51.910;8.374;2022-12-26T01:42:11;11.40;99.90
37002;DHT22;22913;51.910;8.374;2022-12-26T01:45:01;11.30;99.90
37002;DHT22;22913;51.910;8.374;2022-12-26T01:47:50;11.30;99.90
37002;DHT22;22913;51.910;8.374;2022-12-26T01:50:42;11.30;99.90
37002;DHT22;22913;51.910;8.374;2022-12-26T01:53:31;11.30;99.90
37002;DHT22;22913;51.910;8.374;2022-12-26T01:56:22;11.30;99.90
37002;DHT22;22913;51.910;8.374;2022-12-26T01:59:11;11.30;99.90
37002;DHT22;22913;51.910;8.374;2022-12-26T02:01:59;11.30;99.90
37002;DHT22;22913;51.910;8.374;2022-12-26T02:04:47;11.30;99.90
37002;DHT22;22913;51.910;8.374;2022-12-26T02:07:52;11.30;99.90
37002;DHT22;22913;51.910;8.374;2022-12-26T02:10:43;11.30;99.90
37002;DHT22;22913;51.910;8.374;2022-12-26T02:13:33;11.40;99.90
37002;DHT22;22913;51.910;8.374;2022-12-26T02:16:19;11.40;99.90
37002;DHT22;22913;51.910;8.374;2022-12-26T02:19:10;11.40;99.90
37002;DHT22;22913;51.910;8.374;2022-12-26T02:22:20;11.30;99.90
37002;DHT22;22913;51.910;8.374;2022-12-26T02:25:34;11.40;99.90
37002;DHT22;22913;51.910;8.374;2022-12-26T02:29:02;11.40;99.90
37002;DHT22;22913;51.910;8.374;2022-12-26T02:31:59;11.40;99.90
37002;DHT22;22913;51.910;8.374;2022-12-26T02:34:54;11.40;99.90
37002;DHT22;22913;51.910;8.374;2022-12-26T02:37:49;11.40;99.90
37002;DHT22;22913;51.910;8.374;2022-12-26T02:40:48;11.40;99.90
37002;DHT22;22913;51.910;8.374;2022-12-26T02:43:40;11.40;99.90
37002;DHT22;22913;51.910;8.374;2022-12-26T02:46:35;11.30;99.90
37002;DHT22;22913;51.910;8.374;2022-12-26T02:49:58;11.30;99.90
37002;DHT22;22913;51.910;8.374;2022-12-26T02:53:09;11.30;99.90
37002;DHT22;22913;51.910;8.374;2022-12-26T02:56:19;11.30;99.90
37002;DHT22;22913;51.910;8.374;2022-12-26T02:59:29;11.30;99.90
37002;DHT22;22913;51.910;8.374;2022-12-26T03:02:37;11.20;99.90
37002;DHT22;22913;51.910;8.374;2022-12-26T03:05:46;11.10;99.90
37002;DHT22;22913;51.910;8.374;2022-12-26T03:08:53;11.20;99.90
37002;DHT22;22913;51.910;8.374;2022-12-26T03:12:01;11.20;99.90
37002;DHT22;22913;51.910;8.374;2022-12-26T03:15:08;11.20;99.90
37002;DHT22;22913;51.910;8.374;2022-12-26T03:17:57;11.20;99.90
37002;DHT22;22913;51.910;8.374;2022-12-26T03:20:46;11.20;99.90
37002;DHT22;22913;51.910;8.374;2022-12-26T03:23:33;11.20;99.90
37002;DHT22;22913;51.910;8.374;2022-12-26T03:26:22;11.10;99.90
37002;DHT22;22913;51.910;8.374;2022-12-26T03:29:23;11.10;99.90
37002;DHT22;22913;51.910;8.374;2022-12-26T03:32:26;11.10;99.90
37002;DHT22;22913;51.910;8.374;2022-12-26T03:35:13;11.10;99.90
37002;DHT22;22913;51.910;8.374;2022-12-26T03:38:03;11.10;99.90
37002;DHT22;22913;51.910;8.374;2022-12-26T03:40:54;11.00;99.90
37002;DHT22;22913;51.910;8.374;2022-12-26T03:44:12;11.00;99.90
37002;DHT22;22913;51.910;8.374;2022-12-26T03:47:26;11.00;99.90
37002;DHT22;22913;51.910;8.374;2022-12-26T03:50:33;11.00;99.90
37002;DHT22;22913;51.910;8.374;2022-12-26T03:53:43;11.00;99.90
37002;DHT22;22913;51.910;8.374;2022-12-26T03:57:03;11.00;99.90
37002;DHT22;22913;51.910;8.374;2022-12-26T04:00:10;11.00;99.90
37002;DHT22;22913;51.910;8.374;2022-12-26T04:03:15;11.10;99.90
37002;DHT22;22913;51.910;8.374;2022-12-26T04:06:24;11.10;99.90
37002;DHT22;22913;51.910;8.374;2022-12-26T04:09:33;11.10;99.90
37002;DHT22;22913;51.910;8.374;2022-12-26T04:12:40;11.10;99.90
37002;DHT22;22913;51.910;8.374;2022-12-26T04:15:48;11.10;99.90
37002;DHT22;22913;51.910;8.374;2022-12-26T04:18:58;11.10;99.90
37002;DHT22;22913;51.910;8.374;2022-12-26T04:22:06;11.00;99.90
37002;DHT22;22913;51.910;8.374;2022-12-26T04:25:15;11.00;99.90
37002;DHT22;22913;51.910;8.374;2022-12-26T04:28:22;11.00;99.90
37002;DHT22;22913;51.910;8.374;2022-12-26T04:31:29;11.00;99.90
37002;DHT22;22913;51.910;8.374;2022-12-26T04:34:41;10.90;99.90
37002;DHT22;22913;51.910;8.374;2022-12-26T04:37:49;10.90;99.90
37002;DHT22;22913;51.910;8.374;2022-12-26T04:40:56;11.00;99.90
37002;DHT22;22913;51.910;8.374;2022-12-26T04:44:02;11.00;99.90
37002;DHT22;22913;51.910;8.374;2022-12-26T04:46:52;10.90;99.90
37002;DHT22;22913;51.910;8.374;2022-12-26T04:49:41;10.90;99.90
37002;DHT22;22913;51.910;8.374;2022-12-26T04:52:45;10.90;99.90
37002;DHT22;22913;51.910;8.374;2022-12-26T04:55:42;10.90;99.90
37002;DHT22;22913;51.910;8.374;2022-12-26T04:58:29;10.90;99.90
37002;DHT22;22913;51.910;8.374;2022-12-26T05:01:14;10.80;99.90
37002;DHT22;22913;51.910;8.374;2022-12-26T05:04:18;10.80;99.90
37002;DHT22;22913;51.910;8.374;2022-12-26T05:07:24;10.80;99.90
37002;DHT22;22913;51.910;8.374;2022-12-26T05:10:28;10.80;99.90
37002;DHT22;22913;51.910;8.374;2022-12-26T05:13:13;10.80;99.90
37002;DHT22;22913;51.910;8.374;2022-12-26T05:16:00;10.80;99.90
37002;DHT22;22913;51.910;8.374;2022-12-26T05:19:04;10.80;99.90
37002;DHT22;22913;51.910;8.374;2022-12-26T05:22:09;10.80;99.90
37002;DHT22;22913;51.910;8.374;2022-12-26T05:25:15;10.70;99.90
37002;DHT22;22913;51.910;8.374;2022-12-26T05:28:19;10.70;99.90
37002;DHT22;22913;51.910;8.374;2022-12-26T05:31:24;10.70;99.90
37002;DHT22;22913;51.910;8.374;2022-12-26T05:34:09;10.70;99.90
37002;DHT22;22913;51.910;8.374;2022-12-26T05:36:57;10.70;99.90
37002;DHT22;22913;51.910;8.374;2022-12-26T05:39:43;10.70;99.90
37002;DHT22;22913;51.910;8.374;2022-12-26T05:42:29;10.70;99.90
37002;DHT22;22913;51.910;8.374;2022-12-26T05:45:15;10.70;99.90
37002;DHT22;22913;51.910;8.374;2022-12-26T05:48:01;10.70;99.90
37002;DHT22;22913;51.910;8.374;2022-12-26T05:50:47;10.70;99.90
37002;DHT22;22913;51.910;8.374;2022-12-26T05:53:33;10.60;99.90
37002;DHT22;22913;51.910;8.374;2022-12-26T05:56:19;10.60;99.90
37002;DHT22;22913;51.910;8.374;2022-12-26T05:59:04;10.60;99.90
37002;DHT22;22913;51.910;8.374;2022-12-26T06:01:50;10.50;99.90
37002;DHT22;22913;51.910;8.374;2022-12-26T06:04:37;10.50;99.90
37002;DHT22;22913;51.910;8.374;2022-12-26T06:07:23;10.50;99.90
37002;DHT22;22913;51.910;8.374;2022-12-26T06:10:09;10.40;99.90
37002;DHT22;22913;51.910;8.374;2022-12-26T06:12:55;10.40;99.90
37002;DHT22;22913;51.910;8.374;2022-12-26T06:15:41;10.40;99.90
37002;DHT22;22913;51.910;8.374;2022-12-26T06:18:27;10.50;99.90
37002;DHT22;22913;51.910;8.374;2022-12-26T06:21:19;10.50;99.90
37002;DHT22;22913;51.910;8.374;2022-12-26T06:24:06;10.50;99.90
37002;DHT22;22913;51.910;8.374;2022-12-26T06:26:52;10.40;99.90
37002;DHT22;22913;51.910;8.374;2022-12-26T06:29:41;10.40;99.90
37002;DHT22;22913;51.910;8.374;2022-12-26T06:32:27;10.50;99.90
37002;DHT22;22913;51.910;8.374;2022-12-26T06:35:14;10.40;99.90
37002;DHT22;22913;51.910;8.374;2022-12-26T06:38:01;10.40;99.90
37002;DHT22;22913;51.910;8.374;2022-12-26T06:40:49;10.40;99.90
37002;DHT22;22913;51.910;8.374;2022-12-26T06:43:38;10.40;99.90
37002;DHT22;22913;51.910;8.374;2022-12-26T06:46:24;10.40;99.90
37002;DHT22;22913;51.910;8.374;2022-12-26T06:49:13;10.40;99.90
37002;DHT22;22913;51.910;8.374;2022-12-26T06:51:59;10.40;99.90
37002;DHT22;22913;51.910;8.374;2022-12-26T06:54:46;10.40;99.90
37002;DHT22;22913;51.910;8.374;2022-12-26T06:57:35;10.40;99.90
37002;DHT22;22913;51.910;8.374;2022-12-26T07:00:21;10.30;99.90
37002;DHT22;22913;51.910;8.374;2022-12-26T07:03:07;10.40;99.90
37002;DHT22;22913;51.910;8.374;2022-12-26T07:05:53;10.40;99.90
37002;DHT22;22913;51.910;8.374;2022-12-26T07:08:39;10.40;99.90
37002;DHT22;22913;51.910;8.374;2022-12-26T07:11:29;10.30;99.90
37002;DHT22;22913;51.910;8.374;2022-12-26T07:14:16;10.30;99.90
37002;DHT22;22913;51.910;8.374;2022-12-26T07:17:01;10.30;99.90
37002;DHT22;22913;51.910;8.374;2022-12-26T07:19:47;10.20;99.90
37002;DHT22;22913;51.910;8.374;2022-12-26T07:22:33;10.20;99.90
37002;DHT22;22913;51.910;8.374;2022-12-26T07:25:19;10.30;99.90
37002;DHT22;22913;51.910;8.374;2022-12-26T07:28:06;10.30;99.90
37002;DHT22;22913;51.910;8.374;2022-12-26T07:30:52;10.30;99.90
37002;DHT22;22913;51.910;8.374;2022-12-26T07:33:37;10.40;99.90
37002;DHT22;22913;51.910;8.374;2022-12-26T07:36:24;10.40;99.90
37002;DHT22;22913;51.910;8.374;2022-12-26T07:39:12;10.30;99.90
37002;DHT22;22913;51.910;8.374;2022-12-26T07:41:58;10.30;99.90
37002;DHT22;22913;51.910;8.374;2022-12-26T07:44:45;10.30;99.90
37002;DHT22;22913;51.910;8.374;2022-12-26T07:47:31;10.30;99.90
37002;DHT22;22913;51.910;8.374;2022-12-26T07:50:17;10.30;99.90
37002;DHT22;22913;51.910;8.374;2022-12-26T07:53:02;10.30;99.90
37002;DHT22;22913;51.910;8.374;2022-12-26T07:55:48;10.20;99.90
37002;DHT22;22913;51.910;8.374;2022-12-26T07:58:33;10.20;99.90
37002;DHT22;22913;51.910;8.374;2022-12-26T08:01:20;10.20;99.90
37002;DHT22;22913;51.910;8.374;2022-12-26T08:04:05;10.20;99.90
37002;DHT22;22913;51.910;8.374;2022-12-26T08:06:51;10.20;99.90
37002;DHT22;22913;51.910;8.374;2022-12-26T08:09:37;10.20;99.90
37002;DHT22;22913;51.910;8.374;2022-12-26T08:12:25;10.10;99.90
37002;DHT22;22913;51.910;8.374;2022-12-26T08:15:11;10.10;99.90
37002;DHT22;22913;51.910;8.374;2022-12-26T08:17:58;10.10;99.90
37002;DHT22;22913;51.910;8.374;2022-12-26T08:20:44;10.10;99.90
37002;DHT22;22913;51.910;8.374;2022-12-26T08:23:29;10.10;99.90
37002;DHT22;22913;51.910;8.374;2022-12-26T08:26:15;10.10;99.90
37002;DHT22;22913;51.910;8.374;2022-12-26T08:29:05;10.10;99.90
37002;DHT22;22913;51.910;8.374;2022-12-26T08:31:51;10.20;99.90
37002;DHT22;22913;51.910;8.374;2022-12-26T08:34:38;10.20;99.90
37002;DHT22;22913;51.910;8.374;2022-12-26T08:37:24;10.10;99.90
37002;DHT22;22913;51.910;8.374;2022-12-26T08:40:10;10.10;99.90
37002;DHT22;22913;51.910;8.374;2022-12-26T08:42:55;10.10;99.90
37002;DHT22;22913;51.910;8.374;2022-12-26T08:45:41;10.10;99.90
37002;DHT22;22913;51.910;8.374;2022-12-26T08:48:27;10.10;99.90
37002;DHT22;22913;51.910;8.374;2022-12-26T08:51:16;10.20;99.90
37002;DHT22;22913;51.910;8.374;2022-12-26T08:54:02;10.20;99.90
37002;DHT22;22913;51.910;8.374;2022-12-26T08:56:48;10.20;99.90
37002;DHT22;22913;51.910;8.374;2022-12-26T08:59:33;10.20;99.90
37002;DHT22;22913;51.910;8.374;2022-12-26T09:02:19;10.20;99.90
37002;DHT22;22913;51.910;8.374;2022-12-26T09:05:06;10.20;99.90
37002;DHT22;22913;51.910;8.374;2022-12-26T09:07:53;10.30;99.90
37002;DHT22;22913;51.910;8.374;2022-12-26T09:10:38;10.30;99.90
37002;DHT22;22913;51.910;8.374;2022-12-26T09:13:24;10.40;99.90
37002;DHT22;22913;51.910;8.374;2022-12-26T09:16:12;10.40;99.90
37002;DHT22;22913;51.910;8.374;2022-12-26T09:18:59;10.40;99.90
37002;DHT22;22913;51.910;8.374;2022-12-26T09:21:45;10.40;99.90
37002;DHT22;22913;51.910;8.374;2022-12-26T09:24:33;10.40;99.90
37002;DHT22;22913;51.910;8.374;2022-12-26T09:27:18;10.50;99.90
37002;DHT22;22913;51.910;8.374;2022-12-26T09:30:05;10.50;99.90
37002;DHT22;22913;51.910;8.374;2022-12-26T09:32:51;10.50;99.90
37002;DHT22;22913;51.910;8.374;2022-12-26T09:35:39;10.50;99.90
37002;DHT22;22913;51.910;8.374;2022-12-26T09:38:24;10.50;99.90
37002;DHT22;22913;51.910;8.374;2022-12-26T09:41:32;10.60;99.90
37002;DHT22;22913;51.910;8.374;2022-12-26T09:44:24;10.60;99.90
37002;DHT22;22913;51.910;8.374;2022-12-26T09:47:20;10.70;99.90
37002;DHT22;22913;51.910;8.374;2022-12-26T09:50:13;10.80;99.90
37002;DHT22;22913;51.910;8.374;2022-12-26T09:53:04;10.90;99.90
37002;DHT22;22913;51.910;8.374;2022-12-26T09:55:53;11.00;99.90
37002;DHT22;22913;51.910;8.374;2022-12-26T09:58:44;11.00;99.90
37002;DHT22;22913;51.910;8.374;2022-12-26T10:01:33;11.10;99.90
37002;DHT22;22913;51.910;8.374;2022-12-26T10:04:22;11.10;99.90
37002;DHT22;22913;51.910;8.374;2022-12-26T10:07:12;11.10;99.90
37002;DHT22;22913;51.910;8.374;2022-12-26T10:10:08;11.20;99.90
37002;DHT22;22913;51.910;8.374;2022-12-26T10:12:59;11.30;99.90
37002;DHT22;22913;51.910;8.374;2022-12-26T10:15:54;11.30;99.90
37002;DHT22;22913;51.910;8.374;2022-12-26T10:18:51;11.40;99.90
37002;DHT22;22913;51.910;8.374;2022-12-26T10:21:45;11.60;99.90
37002;DHT22;22913;51.910;8.374;2022-12-26T10:24:34;11.70;99.90
37002;DHT22;22913;51.910;8.374;2022-12-26T10:27:22;11.80;99.90
37002;DHT22;22913;51.910;8.374;2022-12-26T10:30:16;11.90;99.90
37002;DHT22;22913;51.910;8.374;2022-12-26T10:33:10;12.00;99.90
37002;DHT22;22913;51.910;8.374;2022-12-26T10:35:58;12.00;99.90
37002;DHT22;22913;51.910;8.374;2022-12-26T10:38:47;11.90;99.90
37002;DHT22;22913;51.910;8.374;2022-12-26T10:41:39;11.90;99.90
37002;DHT22;22913;51.910;8.374;2022-12-26T10:44:26;11.70;99.90
37002;DHT22;22913;51.910;8.374;2022-12-26T10:47:21;11.70;99.90
37002;DHT22;22913;51.910;8.374;2022-12-26T10:50:14;11.60;99.90
37002;DHT22;22913;51.910;8.374;2022-12-26T10:53:04;11.60;99.90
37002;DHT22;22913;51.910;8.374;2022-12-26T10:55:51;11.50;99.90
37002;DHT22;22913;51.910;8.374;2022-12-26T10:58:37;11.50;99.90
37002;DHT22;22913;51.910;8.374;2022-12-26T11:01:34;11.60;99.90
37002;DHT22;22913;51.910;8.374;2022-12-26T11:04:22;11.50;99.90
37002;DHT22;22913;51.910;8.374;2022-12-26T11:07:10;11.50;99.90
37002;DHT22;22913;51.910;8.374;2022-12-26T11:09:57;11.50;99.90
37002;DHT22;22913;51.910;8.374;2022-12-26T11:12:45;11.50;99.90
37002;DHT22;22913;51.910;8.374;2022-12-26T11:15:37;11.50;99.90
37002;DHT22;22913;51.910;8.374;2022-12-26T11:18:32;11.60;99.90
37002;DHT22;22913;51.910;8.374;2022-12-26T11:21:21;11.60;99.90
37002;DHT22;22913;51.910;8.374;2022-12-26T11:24:17;11.60;99.90
37002;DHT22;22913;51.910;8.374;2022-12-26T11:27:16;11.70;99.90
37002;DHT22;22913;51.910;8.374;2022-12-26T11:30:23;11.70;99.90
37002;DHT22;22913;51.910;8.374;2022-12-26T11:33:20;11.60;99.90
37002;DHT22;22913;51.910;8.374;2022-12-26T11:36:10;11.60;99.90
37002;DHT22;22913;51.910;8.374;2022-12-26T11:39:02;11.60;99.90
37002;DHT22;22913;51.910;8.374;2022-12-26T11:41:51;11.60;99.90
37002;DHT22;22913;51.910;8.374;2022-12-26T11:44:40;11.60;99.90
37002;DHT22;22913;51.910;8.374;2022-12-26T11:47:28;11.60;99.90
37002;DHT22;22913;51.910;8.374;2022-12-26T11:50:15;11.70;99.90
37002;DHT22;22913;51.910;8.374;2022-12-26T11:53:05;11.60;99.90
37002;DHT22;22913;51.910;8.374;2022-12-26T11:55:59;11.60;99.90
37002;DHT22;22913;51.910;8.374;2022-12-26T11:58:46;11.60;99.90
37002;DHT22;22913;51.910;8.374;2022-12-26T12:01:32;11.40;99.90
37002;DHT22;22913;51.910;8.374;2022-12-26T12:04:17;11.20;99.90
37002;DHT22;22913;51.910;8.374;2022-12-26T12:07:10;11.00;99.90
37002;DHT22;22913;51.910;8.374;2022-12-26T12:10:04;11.00;99.90
37002;DHT22;22913;51.910;8.374;2022-12-26T12:12:58;10.90;99.90
37002;DHT22;22913;51.910;8.374;2022-12-26T12:15:51;10.80;99.90
37002;DHT22;22913;51.910;8.374;2022-12-26T12:18:48;10.80;99.90
37002;DHT22;22913;51.910;8.374;2022-12-26T12:21:45;10.70;99.90
37002;DHT22;22913;51.910;8.374;2022-12-26T12:24:54;10.80;99.90
37002;DHT22;22913;51.910;8.374;2022-12-26T12:27:48;11.30;99.90
37002;DHT22;22913;51.910;8.374;2022-12-26T12:30:41;11.50;99.90
37002;DHT22;22913;51.910;8.374;2022-12-26T12:33:40;11.60;99.90
37002;DHT22;22913;51.910;8.374;2022-12-26T12:36:31;11.50;99.90
37002;DHT22;22913;51.910;8.374;2022-12-26T12:39:20;11.40;99.90
37002;DHT22;22913;51.910;8.374;2022-12-26T12:42:30;11.50;99.90
37002;DHT22;22913;51.910;8.374;2022-12-26T12:45:25;11.60;99.90
37002;DHT22;22913;51.910;8.374;2022-12-26T12:48:22;11.70;99.90
37002;DHT22;22913;51.910;8.374;2022-12-26T12:51:19;11.70;99.90
37002;DHT22;22913;51.910;8.374;2022-12-26T12:54:40;11.70;99.90
37002;DHT22;22913;51.910;8.374;2022-12-26T12:57:35;11.60;99.90
37002;DHT22;22913;51.910;8.374;2022-12-26T13:00:27;11.60;99.90
37002;DHT22;22913;51.910;8.374;2022-12-26T13:03:24;11.50;99.90
37002;DHT22;22913;51.910;8.374;2022-12-26T13:06:15;11.50;99.90
37002;DHT22;22913;51.910;8.374;2022-12-26T13:09:07;11.50;99.90
37002;DHT22;22913;51.910;8.374;2022-12-26T13:11:59;11.40;99.90
37002;DHT22;22913;51.910;8.374;2022-12-26T13:14:48;11.50;99.90
37002;DHT22;22913;51.910;8.374;2022-12-26T13:17:38;11.30;99.90
37002;DHT22;22913;51.910;8.374;2022-12-26T13:20:29;11.40;99.90
37002;DHT22;22913;51.910;8.374;2022-12-26T13:23:24;11.40;99.90
37002;DHT22;22913;51.910;8.374;2022-12-26T13:26:30;11.20;99.90
37002;DHT22;22913;51.910;8.374;2022-12-26T13:29:21;10.80;99.90
37002;DHT22;22913;51.910;8.374;2022-12-26T13:32:18;10.30;99.90
37002;DHT22;22913;51.910;8.374;2022-12-26T13:35:04;10.00;99.90
37002;DHT22;22913;51.910;8.374;2022-12-26T13:37:55;9.90;99.90
37002;DHT22;22913;51.910;8.374;2022-12-26T13:40:46;9.70;99.90
37002;DHT22;22913;51.910;8.374;2022-12-26T13:43:32;9.60;99.90
37002;DHT22;22913;51.910;8.374;2022-12-26T13:46:52;9.50;99.90
37002;DHT22;22913;51.910;8.374;2022-12-26T13:49:39;9.50;99.90
37002;DHT22;22913;51.910;8.374;2022-12-26T13:52:33;9.50;99.90
37002;DHT22;22913;51.910;8.374;2022-12-26T13:55:39;9.50;99.90
37002;DHT22;22913;51.910;8.374;2022-12-26T13:58:41;9.40;99.90
37002;DHT22;22913;51.910;8.374;2022-12-26T14:01:37;9.20;99.90
37002;DHT22;22913;51.910;8.374;2022-12-26T14:04:36;9.00;99.90
37002;DHT22;22913;51.910;8.374;2022-12-26T14:07:29;8.80;99.90
37002;DHT22;22913;51.910;8.374;2022-12-26T14:10:20;8.80;99.90
37002;DHT22;22913;51.910;8.374;2022-12-26T14:13:26;8.70;99.90
37002;DHT22;22913;51.910;8.374;2022-12-26T14:16:20;8.70;99.90
37002;DHT22;22913;51.910;8.374;2022-12-26T14:19:16;8.80;99.90
37002;DHT22;22913;51.910;8.374;2022-12-26T14:22:10;8.70;99.90
37002;DHT22;22913;51.910;8.374;2022-12-26T14:25:03;8.70;99.90
37002;DHT22;22913;51.910;8.374;2022-12-26T14:27:56;8.70;99.90
37002;DHT22;22913;51.910;8.374;2022-12-26T14:30:54;8.50;99.90
37002;DHT22;22913;51.910;8.374;2022-12-26T14:33:49;8.40;99.90
37002;DHT22;22913;51.910;8.374;2022-12-26T14:36:43;8.40;99.90
37002;DHT22;22913;51.910;8.374;2022-12-26T14:39:39;8.40;99.90
37002;DHT22;22913;51.910;8.374;2022-12-26T14:42:28;8.40;99.90
37002;DHT22;22913;51.910;8.374;2022-12-26T14:45:44;8.20;99.90
37002;DHT22;22913;51.910;8.374;2022-12-26T14:48:51;8.20;99.90
37002;DHT22;22913;51.910;8.374;2022-12-26T14:51:39;8.10;99.90
37002;DHT22;22913;51.910;8.374;2022-12-26T14:54:36;8.10;99.90
37002;DHT22;22913;51.910;8.374;2022-12-26T14:57:44;8.00;99.90
37002;DHT22;22913;51.910;8.374;2022-12-26T15:00:32;8.00;99.90
37002;DHT22;22913;51.910;8.374;2022-12-26T15:03:41;7.90;99.90
37002;DHT22;22913;51.910;8.374;2022-12-26T15:07:00;7.80;99.90
37002;DHT22;22913;51.910;8.374;2022-12-26T15:10:17;7.80;99.90
37002;DHT22;22913;51.910;8.374;2022-12-26T15:13:35;7.70;99.90
37002;DHT22;22913;51.910;8.374;2022-12-26T15:16:41;7.70;99.90
37002;DHT22;22913;51.910;8.374;2022-12-26T15:23:29;7.60;99.90
37002;DHT22;22913;51.910;8.374;2022-12-26T15:26:49;7.60;99.90
37002;DHT22;22913;51.910;8.374;2022-12-26T15:29:58;7.60;99.90
37002;DHT22;22913;51.910;8.374;2022-12-26T15:32:53;7.60;99.90
37002;DHT22;22913;51.910;8.374;2022-12-26T15:35:48;7.50;99.90
37002;DHT22;22913;51.910;8.374;2022-12-26T15:38:40;7.50;99.90
37002;DHT22;22913;51.910;8.374;2022-12-26T15:41:37;7.50;99.90
37002;DHT22;22913;51.910;8.374;2022-12-26T15:44:29;7.50;99.90
37002;DHT22;22913;51.910;8.374;2022-12-26T15:47:24;7.50;99.90
37002;DHT22;22913;51.910;8.374;2022-12-26T15:50:23;7.50;99.90
37002;DHT22;22913;51.910;8.374;2022-12-26T15:53:18;7.40;99.90
37002;DHT22;22913;51.910;8.374;2022-12-26T15:56:33;7.40;99.90
37002;DHT22;22913;51.910;8.374;2022-12-26T15:59:54;7.40;99.90
37002;DHT22;22913;51.910;8.374;2022-12-26T16:02:53;7.40;99.90
37002;DHT22;22913;51.910;8.374;2022-12-26T16:05:49;7.40;99.90
37002;DHT22;22913;51.910;8.374;2022-12-26T16:08:56;7.30;99.90
37002;DHT22;22913;51.910;8.374;2022-12-26T16:11:51;7.30;99.90
37002;DHT22;22913;51.910;8.374;2022-12-26T16:14:38;7.20;99.90
37002;DHT22;22913;51.910;8.374;2022-12-26T16:17:24;7.20;99.90
37002;DHT22;22913;51.910;8.374;2022-12-26T16:20:29;7.20;99.90
37002;DHT22;22913;51.910;8.374;2022-12-26T16:23:37;7.10;99.90
37002;DHT22;22913;51.910;8.374;2022-12-26T16:26:26;7.20;99.90
37002;DHT22;22913;51.910;8.374;2022-12-26T16:29:17;7.20;99.90
37002;DHT22;22913;51.910;8.374;2022-12-26T16:32:04;7.30;99.90
37002;DHT22;22913;51.910;8.374;2022-12-26T16:34:50;7.30;99.90
37002;DHT22;22913;51.910;8.374;2022-12-26T16:37:36;7.30;99.90
37002;DHT22;22913;51.910;8.374;2022-12-26T16:40:24;7.30;99.90
37002;DHT22;22913;51.910;8.374;2022-12-26T16:43:24;7.30;99.90
37002;DHT22;22913;51.910;8.374;2022-12-26T16:46:12;7.30;99.90
37002;DHT22;22913;51.910;8.374;2022-12-26T16:48:59;7.30;99.90
37002;DHT22;22913;51.910;8.374;2022-12-26T16:51:46;7.30;99.90
37002;DHT22;22913;51.910;8.374;2022-12-26T16:54:36;7.40;99.90
37002;DHT22;22913;51.910;8.374;2022-12-26T16:57:22;7.40;99.90
37002;DHT22;22913;51.910;8.374;2022-12-26T17:00:15;7.40;99.90
37002;DHT22;22913;51.910;8.374;2022-12-26T17:03:07;7.30;99.90
37002;DHT22;22913;51.910;8.374;2022-12-26T17:05:58;7.30;99.90
37002;DHT22;22913;51.910;8.374;2022-12-26T17:08:47;7.40;99.90
37002;DHT22;22913;51.910;8.374;2022-12-26T17:11:37;7.30;99.90
37002;DHT22;22913;51.910;8.374;2022-12-26T17:14:25;7.30;99.90
37002;DHT22;22913;51.910;8.374;2022-12-26T17:17:26;7.30;99.90
37002;DHT22;22913;51.910;8.374;2022-12-26T17:20:33;7.20;99.90
37002;DHT22;22913;51.910;8.374;2022-12-26T17:23:33;7.20;99.90
37002;DHT22;22913;51.910;8.374;2022-12-26T17:26:24;7.10;99.90
37002;DHT22;22913;51.910;8.374;2022-12-26T17:29:35;7.00;99.90
37002;DHT22;22913;51.910;8.374;2022-12-26T17:32:32;7.00;99.90
37002;DHT22;22913;51.910;8.374;2022-12-26T17:35:21;7.00;99.90
37002;DHT22;22913;51.910;8.374;2022-12-26T17:38:15;7.00;99.90
37002;DHT22;22913;51.910;8.374;2022-12-26T17:41:03;6.90;99.90
37002;DHT22;22913;51.910;8.374;2022-12-26T17:43:52;6.90;99.90
37002;DHT22;22913;51.910;8.374;2022-12-26T17:46:40;6.70;99.90
37002;DHT22;22913;51.910;8.374;2022-12-26T17:49:26;6.80;99.90
37002;DHT22;22913;51.910;8.374;2022-12-26T17:52:13;6.70;99.90
37002;DHT22;22913;51.910;8.374;2022-12-26T17:55:02;6.70;99.90
37002;DHT22;22913;51.910;8.374;2022-12-26T17:57:48;6.60;99.90
37002;DHT22;22913;51.910;8.374;2022-12-26T18:00:34;6.60;99.90
37002;DHT22;22913;51.910;8.374;2022-12-26T18:03:20;6.50;99.90
37002;DHT22;22913;51.910;8.374;2022-12-26T18:06:05;6.50;99.90
37002;DHT22;22913;51.910;8.374;2022-12-26T18:09:01;6.50;99.90
37002;DHT22;22913;51.910;8.374;2022-12-26T18:11:48;6.40;99.90
37002;DHT22;22913;51.910;8.374;2022-12-26T18:14:34;6.40;99.90
37002;DHT22;22913;51.910;8.374;2022-12-26T18:17:31;6.40;99.90
37002;DHT22;22913;51.910;8.374;2022-12-26T18:20:19;6.40;99.90
37002;DHT22;22913;51.910;8.374;2022-12-26T18:23:09;6.40;99.90